首页
METAR-TAF:

METAR-TAF

机场 :

卡諾, 尼日利亚

纬度: 12-03N, 经度: 008-32E, 海拔: 476米

当前天气观测

该预报发布于1小时和5分钟前的01:00 UTC
风速8节,风向
温度 28°C
湿度 62%
气压 1014 hPa
能见度10公里或以上
少量云层高于1100英尺

METAR: DNKN 250100Z 19008KT 9999 FEW011 28/20 Q1014 NOSIG

时间: 03:05 (02:05 UTC)

预报

该预报发布于3小时和5分钟前的23:00 UTC
预报有效从25日的 00点(UTC)到 26日的 06点(UTC)
风速10节,风向南转西南,有时为20节阵风
能见度10公里或以上
1500米以下无云,无积雨云
短暂存在
从 25日的 14点(UTC)到 25日的 18点(UTC)
散云层高于1400英尺
少量云层高于2200英尺, 积雨云.
雷暴,

TAF: DNKN 242300Z 2500/2606 20010G20KT CAVOK TEMPO 2514/2518 TS SCT014 FEW022CB

超过4000个机场的气象观测和天气预报(METAR&TAF报告)。

可查询的气象台以黄色和红色小点在地图上表示。

将鼠标移到小点上方,可查看气象台名称。

然后点击查看天气观测和预报。

如需切换地图:点击带黑十字的绿色按钮放大地图;点击带横线的绿色按钮缩小地图;或者点击绿色箭头查看邻近地区的地图。


METAR-TAF: